sensor_id;sensor_type;location;lat;lon;timestamp;temperature;humidity
17994;DHT22;9122;48.406;9.984;2023-05-19T00:02:28;13.30;89.00
17994;DHT22;9122;48.406;9.984;2023-05-19T00:05:16;13.30;88.90
17994;DHT22;9122;48.406;9.984;2023-05-19T00:08:02;13.20;88.50
17994;DHT22;9122;48.406;9.984;2023-05-19T00:10:47;13.30;88.70
17994;DHT22;9122;48.406;9.984;2023-05-19T00:13:31;13.20;88.50
17994;DHT22;9122;48.406;9.984;2023-05-19T00:16:16;13.20;88.50
17994;DHT22;9122;48.406;9.984;2023-05-19T00:19:03;13.20;88.40
17994;DHT22;9122;48.406;9.984;2023-05-19T00:21:48;13.20;88.20
17994;DHT22;9122;48.406;9.984;2023-05-19T00:24:33;13.20;88.20
17994;DHT22;9122;48.406;9.984;2023-05-19T00:27:17;13.10;88.20
17994;DHT22;9122;48.406;9.984;2023-05-19T00:32:46;13.10;87.70
17994;DHT22;9122;48.406;9.984;2023-05-19T00:35:30;13.10;88.20
17994;DHT22;9122;48.406;9.984;2023-05-19T00:38:15;13.10;88.20
17994;DHT22;9122;48.406;9.984;2023-05-19T00:41:00;13.10;88.30
17994;DHT22;9122;48.406;9.984;2023-05-19T00:43:45;13.00;88.20
17994;DHT22;9122;48.406;9.984;2023-05-19T00:46:29;13.00;88.30
17994;DHT22;9122;48.406;9.984;2023-05-19T00:49:14;13.00;88.20
17994;DHT22;9122;48.406;9.984;2023-05-19T00:52:00;13.00;88.10
17994;DHT22;9122;48.406;9.984;2023-05-19T00:54:48;13.00;88.10
17994;DHT22;9122;48.406;9.984;2023-05-19T00:57:33;12.90;88.10
17994;DHT22;9122;48.406;9.984;2023-05-19T01:00:18;12.90;88.20
17994;DHT22;9122;48.406;9.984;2023-05-19T01:03:04;12.90;88.30
17994;DHT22;9122;48.406;9.984;2023-05-19T01:05:54;12.90;88.40
17994;DHT22;9122;48.406;9.984;2023-05-19T01:08:38;12.90;88.30
17994;DHT22;9122;48.406;9.984;2023-05-19T01:11:22;12.80;88.60
17994;DHT22;9122;48.406;9.984;2023-05-19T01:14:07;12.80;88.80
17994;DHT22;9122;48.406;9.984;2023-05-19T01:17:17;12.80;88.50
17994;DHT22;9122;48.406;9.984;2023-05-19T01:20:20;12.80;88.70
17994;DHT22;9122;48.406;9.984;2023-05-19T01:32:40;12.70;89.20
17994;DHT22;9122;48.406;9.984;2023-05-19T01:35:26;12.60;89.20
17994;DHT22;9122;48.406;9.984;2023-05-19T01:38:12;12.60;89.00
17994;DHT22;9122;48.406;9.984;2023-05-19T01:40:58;12.60;89.10
17994;DHT22;9122;48.406;9.984;2023-05-19T01:43:43;12.60;89.30
17994;DHT22;9122;48.406;9.984;2023-05-19T01:46:28;12.50;89.40
17994;DHT22;9122;48.406;9.984;2023-05-19T01:49:12;12.50;89.40
17994;DHT22;9122;48.406;9.984;2023-05-19T01:51:57;12.50;90.00
17994;DHT22;9122;48.406;9.984;2023-05-19T01:54:42;12.50;90.10
17994;DHT22;9122;48.406;9.984;2023-05-19T01:57:38;12.50;89.90
17994;DHT22;9122;48.406;9.984;2023-05-19T02:03:46;12.50;89.80
17994;DHT22;9122;48.406;9.984;2023-05-19T02:06:53;12.40;89.90
17994;DHT22;9122;48.406;9.984;2023-05-19T02:12:36;12.40;90.10
17994;DHT22;9122;48.406;9.984;2023-05-19T02:15:24;12.30;90.20
17994;DHT22;9122;48.406;9.984;2023-05-19T02:18:10;12.40;90.30
17994;DHT22;9122;48.406;9.984;2023-05-19T02:20:55;12.40;90.40
17994;DHT22;9122;48.406;9.984;2023-05-19T02:23:41;12.40;90.50
17994;DHT22;9122;48.406;9.984;2023-05-19T02:26:25;12.40;90.50
17994;DHT22;9122;48.406;9.984;2023-05-19T02:29:10;12.30;90.50
17994;DHT22;9122;48.406;9.984;2023-05-19T02:31:54;12.30;90.50
17994;DHT22;9122;48.406;9.984;2023-05-19T02:34:38;12.30;90.50
17994;DHT22;9122;48.406;9.984;2023-05-19T02:37:23;12.30;90.60
17994;DHT22;9122;48.406;9.984;2023-05-19T02:40:08;12.30;90.60
17994;DHT22;9122;48.406;9.984;2023-05-19T02:42:52;12.30;90.60
17994;DHT22;9122;48.406;9.984;2023-05-19T02:45:37;12.30;90.70
17994;DHT22;9122;48.406;9.984;2023-05-19T02:48:21;12.30;90.80
17994;DHT22;9122;48.406;9.984;2023-05-19T02:51:05;12.20;90.70
17994;DHT22;9122;48.406;9.984;2023-05-19T02:53:49;12.20;90.80
17994;DHT22;9122;48.406;9.984;2023-05-19T02:56:34;12.20;90.80
17994;DHT22;9122;48.406;9.984;2023-05-19T02:59:19;12.20;90.80
17994;DHT22;9122;48.406;9.984;2023-05-19T03:02:03;12.20;90.90
17994;DHT22;9122;48.406;9.984;2023-05-19T03:04:47;12.20;90.90
17994;DHT22;9122;48.406;9.984;2023-05-19T03:07:32;12.20;91.40
17994;DHT22;9122;48.406;9.984;2023-05-19T03:10:16;12.20;91.00
17994;DHT22;9122;48.406;9.984;2023-05-19T03:13:01;12.10;91.00
17994;DHT22;9122;48.406;9.984;2023-05-19T03:15:45;12.10;91.10
17994;DHT22;9122;48.406;9.984;2023-05-19T03:18:30;12.10;91.10
17994;DHT22;9122;48.406;9.984;2023-05-19T03:21:14;12.10;91.20
17994;DHT22;9122;48.406;9.984;2023-05-19T03:23:59;12.10;91.20
17994;DHT22;9122;48.406;9.984;2023-05-19T03:26:44;12.10;91.30
17994;DHT22;9122;48.406;9.984;2023-05-19T03:29:28;12.10;91.30
17994;DHT22;9122;48.406;9.984;2023-05-19T03:32:13;12.10;91.30
17994;DHT22;9122;48.406;9.984;2023-05-19T03:34:57;12.00;91.20
17994;DHT22;9122;48.406;9.984;2023-05-19T03:37:42;12.00;91.20
17994;DHT22;9122;48.406;9.984;2023-05-19T03:40:26;12.00;91.20
17994;DHT22;9122;48.406;9.984;2023-05-19T03:43:11;12.00;91.20
17994;DHT22;9122;48.406;9.984;2023-05-19T03:45:56;12.00;91.20
17994;DHT22;9122;48.406;9.984;2023-05-19T03:48:40;12.00;91.30
17994;DHT22;9122;48.406;9.984;2023-05-19T03:51:25;12.00;91.20
17994;DHT22;9122;48.406;9.984;2023-05-19T03:54:11;12.00;91.30
17994;DHT22;9122;48.406;9.984;2023-05-19T03:56:55;12.00;91.40
17994;DHT22;9122;48.406;9.984;2023-05-19T03:59:39;11.90;91.40
17994;DHT22;9122;48.406;9.984;2023-05-19T04:02:24;11.90;91.40
17994;DHT22;9122;48.406;9.984;2023-05-19T04:05:09;11.90;91.40
17994;DHT22;9122;48.406;9.984;2023-05-19T04:07:53;11.90;91.40
17994;DHT22;9122;48.406;9.984;2023-05-19T04:10:38;11.90;91.30
17994;DHT22;9122;48.406;9.984;2023-05-19T04:13:22;11.90;91.40
17994;DHT22;9122;48.406;9.984;2023-05-19T04:16:07;11.90;91.40
17994;DHT22;9122;48.406;9.984;2023-05-19T04:18:53;11.90;91.40
17994;DHT22;9122;48.406;9.984;2023-05-19T04:21:37;11.90;91.70
17994;DHT22;9122;48.406;9.984;2023-05-19T04:24:21;11.90;91.40
17994;DHT22;9122;48.406;9.984;2023-05-19T04:27:06;11.90;91.40
17994;DHT22;9122;48.406;9.984;2023-05-19T04:29:55;11.90;91.40
17994;DHT22;9122;48.406;9.984;2023-05-19T04:32:39;11.90;91.40
17994;DHT22;9122;48.406;9.984;2023-05-19T04:35:26;11.90;91.40
17994;DHT22;9122;48.406;9.984;2023-05-19T04:38:10;11.90;91.50
17994;DHT22;9122;48.406;9.984;2023-05-19T04:40:55;11.90;91.50
17994;DHT22;9122;48.406;9.984;2023-05-19T04:43:39;11.90;91.50
17994;DHT22;9122;48.406;9.984;2023-05-19T04:46:25;11.90;91.50
17994;DHT22;9122;48.406;9.984;2023-05-19T04:49:10;11.90;91.50
17994;DHT22;9122;48.406;9.984;2023-05-19T04:51:57;11.90;91.50
17994;DHT22;9122;48.406;9.984;2023-05-19T04:54:42;11.90;91.50
17994;DHT22;9122;48.406;9.984;2023-05-19T04:57:27;11.90;91.50
17994;DHT22;9122;48.406;9.984;2023-05-19T05:00:11;12.00;91.50
17994;DHT22;9122;48.406;9.984;2023-05-19T05:02:57;12.00;91.50
17994;DHT22;9122;48.406;9.984;2023-05-19T05:05:42;12.00;91.40
17994;DHT22;9122;48.406;9.984;2023-05-19T05:08:27;12.00;91.40
17994;DHT22;9122;48.406;9.984;2023-05-19T05:11:13;12.00;91.40
17994;DHT22;9122;48.406;9.984;2023-05-19T05:13:57;12.00;91.50
17994;DHT22;9122;48.406;9.984;2023-05-19T05:16:42;12.00;91.60
17994;DHT22;9122;48.406;9.984;2023-05-19T05:19:27;12.00;91.60
17994;DHT22;9122;48.406;9.984;2023-05-19T05:22:12;12.00;91.60
17994;DHT22;9122;48.406;9.984;2023-05-19T05:24:56;12.00;91.60
17994;DHT22;9122;48.406;9.984;2023-05-19T05:27:40;12.00;91.60
17994;DHT22;9122;48.406;9.984;2023-05-19T05:30:25;11.90;91.70
17994;DHT22;9122;48.406;9.984;2023-05-19T05:33:10;12.00;91.80
17994;DHT22;9122;48.406;9.984;2023-05-19T05:35:54;12.00;91.80
17994;DHT22;9122;48.406;9.984;2023-05-19T05:38:38;12.00;91.90
17994;DHT22;9122;48.406;9.984;2023-05-19T05:41:23;12.00;92.00
17994;DHT22;9122;48.406;9.984;2023-05-19T05:44:07;12.00;92.00
17994;DHT22;9122;48.406;9.984;2023-05-19T05:46:52;12.00;92.20
17994;DHT22;9122;48.406;9.984;2023-05-19T05:49:37;12.00;91.90
17994;DHT22;9122;48.406;9.984;2023-05-19T05:52:26;12.00;92.30
17994;DHT22;9122;48.406;9.984;2023-05-19T05:55:13;12.00;92.00
17994;DHT22;9122;48.406;9.984;2023-05-19T05:57:58;12.00;92.00
17994;DHT22;9122;48.406;9.984;2023-05-19T06:00:45;12.00;92.00
17994;DHT22;9122;48.406;9.984;2023-05-19T06:03:30;12.00;92.10
17994;DHT22;9122;48.406;9.984;2023-05-19T06:06:16;12.00;92.30
17994;DHT22;9122;48.406;9.984;2023-05-19T06:09:01;12.00;92.30
17994;DHT22;9122;48.406;9.984;2023-05-19T06:11:45;12.00;92.30
17994;DHT22;9122;48.406;9.984;2023-05-19T06:14:30;12.00;92.40
17994;DHT22;9122;48.406;9.984;2023-05-19T06:17:15;12.00;92.50
17994;DHT22;9122;48.406;9.984;2023-05-19T06:19:59;12.00;92.50
17994;DHT22;9122;48.406;9.984;2023-05-19T06:22:44;12.00;92.50
17994;DHT22;9122;48.406;9.984;2023-05-19T06:25:28;12.00;92.50
17994;DHT22;9122;48.406;9.984;2023-05-19T06:28:13;12.00;92.60
17994;DHT22;9122;48.406;9.984;2023-05-19T06:30:58;12.00;92.80
17994;DHT22;9122;48.406;9.984;2023-05-19T06:33:43;12.00;92.80
17994;DHT22;9122;48.406;9.984;2023-05-19T06:36:28;12.00;92.80
17994;DHT22;9122;48.406;9.984;2023-05-19T06:39:12;12.10;92.80
17994;DHT22;9122;48.406;9.984;2023-05-19T06:41:56;12.10;92.80
17994;DHT22;9122;48.406;9.984;2023-05-19T06:44:41;12.10;92.80
17994;DHT22;9122;48.406;9.984;2023-05-19T06:47:25;12.10;92.60
17994;DHT22;9122;48.406;9.984;2023-05-19T06:50:10;12.20;92.60
17994;DHT22;9122;48.406;9.984;2023-05-19T06:52:55;12.10;92.60
17994;DHT22;9122;48.406;9.984;2023-05-19T06:55:40;12.20;92.50
17994;DHT22;9122;48.406;9.984;2023-05-19T06:58:24;12.20;92.50
17994;DHT22;9122;48.406;9.984;2023-05-19T07:01:09;12.20;92.60
17994;DHT22;9122;48.406;9.984;2023-05-19T07:03:54;12.20;92.60
17994;DHT22;9122;48.406;9.984;2023-05-19T07:06:38;12.20;92.60
17994;DHT22;9122;48.406;9.984;2023-05-19T07:09:23;12.30;92.70
17994;DHT22;9122;48.406;9.984;2023-05-19T07:12:08;12.30;92.70
17994;DHT22;9122;48.406;9.984;2023-05-19T07:14:52;12.40;92.60
17994;DHT22;9122;48.406;9.984;2023-05-19T07:17:36;12.40;92.50
17994;DHT22;9122;48.406;9.984;2023-05-19T07:20:21;12.40;92.50
17994;DHT22;9122;48.406;9.984;2023-05-19T07:23:05;12.50;92.50
17994;DHT22;9122;48.406;9.984;2023-05-19T07:25:53;12.50;92.40
17994;DHT22;9122;48.406;9.984;2023-05-19T07:28:39;12.60;92.30
17994;DHT22;9122;48.406;9.984;2023-05-19T07:31:23;12.60;92.20
17994;DHT22;9122;48.406;9.984;2023-05-19T07:34:08;12.60;92.20
17994;DHT22;9122;48.406;9.984;2023-05-19T07:36:52;12.70;92.30
17994;DHT22;9122;48.406;9.984;2023-05-19T07:39:37;12.70;92.30
17994;DHT22;9122;48.406;9.984;2023-05-19T07:42:21;12.80;92.10
17994;DHT22;9122;48.406;9.984;2023-05-19T07:45:06;12.80;91.80
17994;DHT22;9122;48.406;9.984;2023-05-19T07:47:52;12.80;91.80
17994;DHT22;9122;48.406;9.984;2023-05-19T07:50:37;12.80;91.80
17994;DHT22;9122;48.406;9.984;2023-05-19T07:53:22;12.90;91.90
17994;DHT22;9122;48.406;9.984;2023-05-19T07:56:06;13.00;91.70
17994;DHT22;9122;48.406;9.984;2023-05-19T07:58:51;13.00;91.50
17994;DHT22;9122;48.406;9.984;2023-05-19T08:01:35;13.10;91.40
17994;DHT22;9122;48.406;9.984;2023-05-19T08:04:20;13.20;91.40
17994;DHT22;9122;48.406;9.984;2023-05-19T08:07:04;13.20;91.50
17994;DHT22;9122;48.406;9.984;2023-05-19T08:09:49;13.20;91.00
17994;DHT22;9122;48.406;9.984;2023-05-19T08:12:33;13.30;91.10
17994;DHT22;9122;48.406;9.984;2023-05-19T08:15:18;13.30;90.90
17994;DHT22;9122;48.406;9.984;2023-05-19T08:18:03;13.30;90.80
17994;DHT22;9122;48.406;9.984;2023-05-19T08:20:48;13.30;90.80
17994;DHT22;9122;48.406;9.984;2023-05-19T08:23:33;13.30;91.00
17994;DHT22;9122;48.406;9.984;2023-05-19T08:26:17;13.30;91.10
17994;DHT22;9122;48.406;9.984;2023-05-19T08:29:02;13.30;91.10
17994;DHT22;9122;48.406;9.984;2023-05-19T08:31:47;13.40;90.90
17994;DHT22;9122;48.406;9.984;2023-05-19T08:34:31;13.30;90.90
17994;DHT22;9122;48.406;9.984;2023-05-19T08:37:16;13.30;91.00
17994;DHT22;9122;48.406;9.984;2023-05-19T08:40:01;13.40;91.00
17994;DHT22;9122;48.406;9.984;2023-05-19T08:42:47;13.40;91.10
17994;DHT22;9122;48.406;9.984;2023-05-19T08:45:32;13.40;91.10
17994;DHT22;9122;48.406;9.984;2023-05-19T08:48:17;13.40;91.30
17994;DHT22;9122;48.406;9.984;2023-05-19T08:51:26;13.40;91.00
17994;DHT22;9122;48.406;9.984;2023-05-19T08:54:16;13.40;90.80
17994;DHT22;9122;48.406;9.984;2023-05-19T08:57:01;13.40;90.60
17994;DHT22;9122;48.406;9.984;2023-05-19T08:59:46;13.40;90.70
17994;DHT22;9122;48.406;9.984;2023-05-19T09:02:32;13.40;90.70
17994;DHT22;9122;48.406;9.984;2023-05-19T09:05:17;13.40;90.60
17994;DHT22;9122;48.406;9.984;2023-05-19T09:08:02;13.40;90.50
17994;DHT22;9122;48.406;9.984;2023-05-19T09:10:47;13.40;90.60
17994;DHT22;9122;48.406;9.984;2023-05-19T09:13:32;13.40;90.60
17994;DHT22;9122;48.406;9.984;2023-05-19T09:16:16;13.50;90.30
17994;DHT22;9122;48.406;9.984;2023-05-19T09:19:01;13.40;90.40
17994;DHT22;9122;48.406;9.984;2023-05-19T09:21:45;13.40;90.20
17994;DHT22;9122;48.406;9.984;2023-05-19T09:24:41;13.40;90.10
17994;DHT22;9122;48.406;9.984;2023-05-19T09:27:25;13.40;89.20
17994;DHT22;9122;48.406;9.984;2023-05-19T09:30:10;13.40;88.60
17994;DHT22;9122;48.406;9.984;2023-05-19T09:32:55;13.50;89.10
17994;DHT22;9122;48.406;9.984;2023-05-19T09:35:45;13.50;89.10
17994;DHT22;9122;48.406;9.984;2023-05-19T09:38:29;13.50;89.20
17994;DHT22;9122;48.406;9.984;2023-05-19T09:41:14;13.50;89.40
17994;DHT22;9122;48.406;9.984;2023-05-19T09:43:58;13.60;89.60
17994;DHT22;9122;48.406;9.984;2023-05-19T09:46:47;13.60;89.40
17994;DHT22;9122;48.406;9.984;2023-05-19T09:49:31;13.60;89.10
17994;DHT22;9122;48.406;9.984;2023-05-19T09:52:16;13.70;89.40
17994;DHT22;9122;48.406;9.984;2023-05-19T09:55:01;13.70;89.10
17994;DHT22;9122;48.406;9.984;2023-05-19T09:57:47;13.80;88.50
17994;DHT22;9122;48.406;9.984;2023-05-19T10:00:33;13.90;88.20
17994;DHT22;9122;48.406;9.984;2023-05-19T10:03:18;13.90;87.90
17994;DHT22;9122;48.406;9.984;2023-05-19T10:06:05;13.90;88.30
17994;DHT22;9122;48.406;9.984;2023-05-19T10:08:52;13.90;88.20
17994;DHT22;9122;48.406;9.984;2023-05-19T10:11:37;14.00;88.50
17994;DHT22;9122;48.406;9.984;2023-05-19T10:14:24;14.00;87.70
17994;DHT22;9122;48.406;9.984;2023-05-19T10:17:10;14.10;87.30
17994;DHT22;9122;48.406;9.984;2023-05-19T10:19:55;14.10;87.20
17994;DHT22;9122;48.406;9.984;2023-05-19T10:22:42;14.20;86.70
17994;DHT22;9122;48.406;9.984;2023-05-19T10:25:26;14.20;85.00
17994;DHT22;9122;48.406;9.984;2023-05-19T10:28:14;14.30;85.00
17994;DHT22;9122;48.406;9.984;2023-05-19T10:31:00;14.30;85.30
17994;DHT22;9122;48.406;9.984;2023-05-19T10:34:35;14.30;85.40
17994;DHT22;9122;48.406;9.984;2023-05-19T10:47:06;14.40;84.40
17994;DHT22;9122;48.406;9.984;2023-05-19T10:49:54;14.50;84.40
17994;DHT22;9122;48.406;9.984;2023-05-19T10:52:39;14.50;84.60
17994;DHT22;9122;48.406;9.984;2023-05-19T10:55:46;14.50;84.20
17994;DHT22;9122;48.406;9.984;2023-05-19T11:01:31;14.50;84.70
17994;DHT22;9122;48.406;9.984;2023-05-19T11:04:16;14.50;84.50
17994;DHT22;9122;48.406;9.984;2023-05-19T11:07:01;14.50;84.90
17994;DHT22;9122;48.406;9.984;2023-05-19T11:09:50;14.50;85.60
17994;DHT22;9122;48.406;9.984;2023-05-19T11:12:44;14.50;85.10
17994;DHT22;9122;48.406;9.984;2023-05-19T11:15:33;14.60;85.60
17994;DHT22;9122;48.406;9.984;2023-05-19T11:18:19;14.60;85.90
17994;DHT22;9122;48.406;9.984;2023-05-19T11:21:04;14.60;85.80
17994;DHT22;9122;48.406;9.984;2023-05-19T11:23:50;14.60;86.20
17994;DHT22;9122;48.406;9.984;2023-05-19T11:26:39;14.60;86.60
17994;DHT22;9122;48.406;9.984;2023-05-19T11:29:25;14.70;86.40
17994;DHT22;9122;48.406;9.984;2023-05-19T11:32:11;14.60;86.50
17994;DHT22;9122;48.406;9.984;2023-05-19T11:34:57;14.70;86.40
17994;DHT22;9122;48.406;9.984;2023-05-19T11:37:41;14.70;86.50
17994;DHT22;9122;48.406;9.984;2023-05-19T11:40:26;14.70;86.20
17994;DHT22;9122;48.406;9.984;2023-05-19T11:43:10;14.70;85.90
17994;DHT22;9122;48.406;9.984;2023-05-19T11:45:55;14.70;86.10
17994;DHT22;9122;48.406;9.984;2023-05-19T11:48:39;14.70;86.40
17994;DHT22;9122;48.406;9.984;2023-05-19T11:51:23;14.70;86.80
17994;DHT22;9122;48.406;9.984;2023-05-19T11:54:09;14.70;86.70
17994;DHT22;9122;48.406;9.984;2023-05-19T11:56:54;14.70;86.40
17994;DHT22;9122;48.406;9.984;2023-05-19T11:59:39;14.60;86.50
17994;DHT22;9122;48.406;9.984;2023-05-19T12:02:28;14.60;86.70
17994;DHT22;9122;48.406;9.984;2023-05-19T12:05:24;14.60;86.60
17994;DHT22;9122;48.406;9.984;2023-05-19T12:08:10;14.60;86.50
17994;DHT22;9122;48.406;9.984;2023-05-19T12:10:54;14.60;86.30
17994;DHT22;9122;48.406;9.984;2023-05-19T12:13:39;14.60;86.00
17994;DHT22;9122;48.406;9.984;2023-05-19T12:16:34;14.60;85.80
17994;DHT22;9122;48.406;9.984;2023-05-19T12:19:22;14.60;86.40
17994;DHT22;9122;48.406;9.984;2023-05-19T12:22:07;14.60;86.20
17994;DHT22;9122;48.406;9.984;2023-05-19T12:24:51;14.60;86.30
17994;DHT22;9122;48.406;9.984;2023-05-19T12:27:36;14.60;86.70
17994;DHT22;9122;48.406;9.984;2023-05-19T12:30:25;14.60;86.80
17994;DHT22;9122;48.406;9.984;2023-05-19T12:33:10;14.60;87.00
17994;DHT22;9122;48.406;9.984;2023-05-19T12:35:55;14.60;86.50
17994;DHT22;9122;48.406;9.984;2023-05-19T12:38:40;14.60;86.40
17994;DHT22;9122;48.406;9.984;2023-05-19T12:41:25;14.60;86.60
17994;DHT22;9122;48.406;9.984;2023-05-19T12:44:14;14.60;86.80
17994;DHT22;9122;48.406;9.984;2023-05-19T12:46:59;14.60;87.20
17994;DHT22;9122;48.406;9.984;2023-05-19T12:52:45;14.50;87.50
17994;DHT22;9122;48.406;9.984;2023-05-19T12:55:29;14.50;87.80
17994;DHT22;9122;48.406;9.984;2023-05-19T12:58:14;14.60;87.70
17994;DHT22;9122;48.406;9.984;2023-05-19T13:00:59;14.60;87.60
17994;DHT22;9122;48.406;9.984;2023-05-19T13:03:43;14.60;87.70
17994;DHT22;9122;48.406;9.984;2023-05-19T13:06:28;14.60;87.80
17994;DHT22;9122;48.406;9.984;2023-05-19T13:09:13;14.60;87.40
17994;DHT22;9122;48.406;9.984;2023-05-19T13:11:58;14.60;87.60
17994;DHT22;9122;48.406;9.984;2023-05-19T13:14:43;14.60;87.50
17994;DHT22;9122;48.406;9.984;2023-05-19T13:17:27;14.70;87.70
17994;DHT22;9122;48.406;9.984;2023-05-19T13:20:12;14.70;87.30
17994;DHT22;9122;48.406;9.984;2023-05-19T13:22:56;14.60;87.20
17994;DHT22;9122;48.406;9.984;2023-05-19T13:25:42;14.70;87.20
17994;DHT22;9122;48.406;9.984;2023-05-19T13:28:26;14.60;87.30
17994;DHT22;9122;48.406;9.984;2023-05-19T13:31:11;14.60;87.40
17994;DHT22;9122;48.406;9.984;2023-05-19T13:33:55;14.60;87.20
17994;DHT22;9122;48.406;9.984;2023-05-19T13:36:40;14.60;87.50
17994;DHT22;9122;48.406;9.984;2023-05-19T13:39:25;14.60;87.30
17994;DHT22;9122;48.406;9.984;2023-05-19T13:42:10;14.60;87.50
17994;DHT22;9122;48.406;9.984;2023-05-19T13:44:54;14.60;87.50
17994;DHT22;9122;48.406;9.984;2023-05-19T13:47:39;14.60;87.80
17994;DHT22;9122;48.406;9.984;2023-05-19T13:50:24;14.60;87.90
17994;DHT22;9122;48.406;9.984;2023-05-19T13:53:08;14.60;87.60
17994;DHT22;9122;48.406;9.984;2023-05-19T13:55:54;14.60;87.60
17994;DHT22;9122;48.406;9.984;2023-05-19T13:58:39;14.60;87.60
17994;DHT22;9122;48.406;9.984;2023-05-19T14:01:23;14.60;87.50
17994;DHT22;9122;48.406;9.984;2023-05-19T14:04:08;14.70;87.60
17994;DHT22;9122;48.406;9.984;2023-05-19T14:07:06;14.70;87.60
17994;DHT22;9122;48.406;9.984;2023-05-19T14:09:51;14.60;87.60
17994;DHT22;9122;48.406;9.984;2023-05-19T14:12:35;14.70;88.00
17994;DHT22;9122;48.406;9.984;2023-05-19T14:15:20;14.60;88.20
17994;DHT22;9122;48.406;9.984;2023-05-19T14:18:05;14.70;89.00
17994;DHT22;9122;48.406;9.984;2023-05-19T14:20:50;14.70;87.80
17994;DHT22;9122;48.406;9.984;2023-05-19T14:23:34;14.70;87.70
17994;DHT22;9122;48.406;9.984;2023-05-19T14:26:19;14.70;87.90
17994;DHT22;9122;48.406;9.984;2023-05-19T14:29:04;14.70;88.20
17994;DHT22;9122;48.406;9.984;2023-05-19T14:31:49;14.70;88.20
17994;DHT22;9122;48.406;9.984;2023-05-19T14:34:33;14.70;88.30
17994;DHT22;9122;48.406;9.984;2023-05-19T14:37:18;14.70;88.10
17994;DHT22;9122;48.406;9.984;2023-05-19T14:40:03;14.70;88.20
17994;DHT22;9122;48.406;9.984;2023-05-19T14:42:48;14.70;88.00
17994;DHT22;9122;48.406;9.984;2023-05-19T14:45:32;14.80;88.20
17994;DHT22;9122;48.406;9.984;2023-05-19T14:48:17;14.80;88.30
17994;DHT22;9122;48.406;9.984;2023-05-19T14:51:02;14.80;88.50
17994;DHT22;9122;48.406;9.984;2023-05-19T14:53:46;14.80;88.40
17994;DHT22;9122;48.406;9.984;2023-05-19T14:56:32;14.80;88.40
17994;DHT22;9122;48.406;9.984;2023-05-19T14:59:16;14.90;88.50
17994;DHT22;9122;48.406;9.984;2023-05-19T15:02:01;14.90;88.40
17994;DHT22;9122;48.406;9.984;2023-05-19T15:04:46;14.90;88.60
17994;DHT22;9122;48.406;9.984;2023-05-19T15:07:30;14.90;88.80
17994;DHT22;9122;48.406;9.984;2023-05-19T15:10:16;14.90;88.80
17994;DHT22;9122;48.406;9.984;2023-05-19T15:13:00;14.90;88.80
17994;DHT22;9122;48.406;9.984;2023-05-19T15:15:45;15.00;88.70
17994;DHT22;9122;48.406;9.984;2023-05-19T15:18:29;14.90;88.40
17994;DHT22;9122;48.406;9.984;2023-05-19T15:21:14;14.90;88.40
17994;DHT22;9122;48.406;9.984;2023-05-19T15:23:58;15.00;88.30
17994;DHT22;9122;48.406;9.984;2023-05-19T15:26:43;15.00;88.60
17994;DHT22;9122;48.406;9.984;2023-05-19T15:29:27;15.00;88.70
17994;DHT22;9122;48.406;9.984;2023-05-19T15:32:11;15.00;88.80
17994;DHT22;9122;48.406;9.984;2023-05-19T15:34:56;15.00;88.80
17994;DHT22;9122;48.406;9.984;2023-05-19T15:37:41;15.00;88.90
17994;DHT22;9122;48.406;9.984;2023-05-19T15:40:25;15.10;88.90
17994;DHT22;9122;48.406;9.984;2023-05-19T15:43:10;15.00;88.70
17994;DHT22;9122;48.406;9.984;2023-05-19T15:45:54;15.10;88.70
17994;DHT22;9122;48.406;9.984;2023-05-19T15:48:39;15.10;88.70
17994;DHT22;9122;48.406;9.984;2023-05-19T15:51:24;15.10;88.80
17994;DHT22;9122;48.406;9.984;2023-05-19T15:54:09;15.10;89.60
17994;DHT22;9122;48.406;9.984;2023-05-19T15:56:53;15.10;89.00
17994;DHT22;9122;48.406;9.984;2023-05-19T15:59:38;15.10;88.90
17994;DHT22;9122;48.406;9.984;2023-05-19T16:02:22;15.20;88.60
17994;DHT22;9122;48.406;9.984;2023-05-19T16:05:07;15.20;88.30
17994;DHT22;9122;48.406;9.984;2023-05-19T16:07:52;15.20;88.20
17994;DHT22;9122;48.406;9.984;2023-05-19T16:10:36;15.20;88.10
17994;DHT22;9122;48.406;9.984;2023-05-19T16:13:21;15.20;88.30
17994;DHT22;9122;48.406;9.984;2023-05-19T16:16:06;15.20;88.50
17994;DHT22;9122;48.406;9.984;2023-05-19T16:18:50;15.20;88.40
17994;DHT22;9122;48.406;9.984;2023-05-19T16:21:34;15.30;88.20
17994;DHT22;9122;48.406;9.984;2023-05-19T16:24:19;15.20;88.30
17994;DHT22;9122;48.406;9.984;2023-05-19T16:27:04;15.20;88.30
17994;DHT22;9122;48.406;9.984;2023-05-19T16:29:48;15.20;88.60
17994;DHT22;9122;48.406;9.984;2023-05-19T16:32:33;15.30;88.80
17994;DHT22;9122;48.406;9.984;2023-05-19T16:35:17;15.30;88.90
17994;DHT22;9122;48.406;9.984;2023-05-19T16:38:02;15.30;88.60
17994;DHT22;9122;48.406;9.984;2023-05-19T16:40:46;15.30;88.80
17994;DHT22;9122;48.406;9.984;2023-05-19T16:43:30;15.30;88.90
17994;DHT22;9122;48.406;9.984;2023-05-19T16:46:16;15.30;89.00
17994;DHT22;9122;48.406;9.984;2023-05-19T16:49:01;15.30;89.00
17994;DHT22;9122;48.406;9.984;2023-05-19T16:51:46;15.30;89.10
17994;DHT22;9122;48.406;9.984;2023-05-19T16:54:30;15.40;89.10
17994;DHT22;9122;48.406;9.984;2023-05-19T16:57:15;15.40;89.10
17994;DHT22;9122;48.406;9.984;2023-05-19T17:00:00;15.40;89.00
17994;DHT22;9122;48.406;9.984;2023-05-19T17:02:44;15.40;88.90
17994;DHT22;9122;48.406;9.984;2023-05-19T17:05:28;15.40;89.00
17994;DHT22;9122;48.406;9.984;2023-05-19T17:08:13;15.40;88.90
17994;DHT22;9122;48.406;9.984;2023-05-19T17:10:57;15.50;88.80
17994;DHT22;9122;48.406;9.984;2023-05-19T17:13:41;15.50;88.40
17994;DHT22;9122;48.406;9.984;2023-05-19T17:16:27;15.50;88.20
17994;DHT22;9122;48.406;9.984;2023-05-19T17:19:11;15.50;88.20
17994;DHT22;9122;48.406;9.984;2023-05-19T17:21:56;15.50;88.20
17994;DHT22;9122;48.406;9.984;2023-05-19T17:24:41;15.50;88.40
17994;DHT22;9122;48.406;9.984;2023-05-19T17:27:25;15.50;88.60
17994;DHT22;9122;48.406;9.984;2023-05-19T17:30:11;15.50;88.70
17994;DHT22;9122;48.406;9.984;2023-05-19T17:32:55;15.50;88.70
17994;DHT22;9122;48.406;9.984;2023-05-19T17:35:42;15.50;88.70
17994;DHT22;9122;48.406;9.984;2023-05-19T17:38:26;15.50;88.80
17994;DHT22;9122;48.406;9.984;2023-05-19T17:41:10;15.50;88.90
17994;DHT22;9122;48.406;9.984;2023-05-19T17:43:56;15.50;89.00
17994;DHT22;9122;48.406;9.984;2023-05-19T17:46:41;15.50;89.50
17994;DHT22;9122;48.406;9.984;2023-05-19T17:49:26;15.50;89.10
17994;DHT22;9122;48.406;9.984;2023-05-19T17:52:10;15.50;89.10
17994;DHT22;9122;48.406;9.984;2023-05-19T17:54:55;15.50;89.20
17994;DHT22;9122;48.406;9.984;2023-05-19T17:57:42;15.50;89.20
17994;DHT22;9122;48.406;9.984;2023-05-19T18:00:28;15.60;89.30
17994;DHT22;9122;48.406;9.984;2023-05-19T18:03:13;15.50;89.20
17994;DHT22;9122;48.406;9.984;2023-05-19T18:05:57;15.60;89.10
17994;DHT22;9122;48.406;9.984;2023-05-19T18:08:46;15.60;89.10
17994;DHT22;9122;48.406;9.984;2023-05-19T18:11:34;15.60;89.10
17994;DHT22;9122;48.406;9.984;2023-05-19T18:14:18;15.60;89.30
17994;DHT22;9122;48.406;9.984;2023-05-19T18:17:03;15.60;89.20